Time;durP1;ratioP1;P1;durP2;ratioP2;P2;SDS_P1;SDS_P2;PMS_P1;PMS_P2;Temp;Humidity;BMP_temperature;BMP_pressure;BME280_temperature;BME280_humidity;BME280_pressure;Samples;Min_cycle;Max_cycle;Signal;HPM_P1;HPM_P2
2023/02/02 00:02:11;;;;;;;15.88;7.80;;;;;;;3.75;61.62;99350.75;4947619;29;20052;-96
2023/02/02 00:04:37;;;;;;;17.13;7.00;;;;;;;3.85;61.87;99372.34;4929297;29;20122;-94
2023/02/02 00:07:06;;;;;;;10.75;6.22;;;;;;;3.75;60.99;99356.06;4912103;29;20059;-96
2023/02/02 00:09:31;;;;;;;10.98;5.18;;;;;;;3.79;61.00;99367.09;4929404;29;20059;-96
2023/02/02 00:11:58;;;;;;;11.50;6.10;;;;;;;3.76;61.18;99352.38;4912525;29;20071;-95
2023/02/02 00:14:24;;;;;;;8.98;5.38;;;;;;;3.77;61.03;99348.66;4911674;29;20042;-95
2023/02/02 00:16:57;;;;;;;10.40;5.82;;;;;;;3.74;60.81;99348.31;4942691;29;20028;-96
2023/02/02 00:19:29;;;;;;;8.52;5.40;;;;;;;3.69;61.90;99369.47;4910081;29;20051;-96
2023/02/02 00:21:54;;;;;;;12.18;6.28;;;;;;;3.70;61.56;99353.28;4926630;29;20545;-96
2023/02/02 00:24:20;;;;;;;12.80;6.85;;;;;;;3.78;61.65;99366.28;4926914;29;20036;-96
2023/02/02 00:26:51;;;;;;;9.23;6.15;;;;;;;3.77;62.23;99361.19;4926009;29;20024;-96
2023/02/02 00:29:21;;;;;;;10.35;5.85;;;;;;;3.80;62.12;99382.84;4917028;29;20031;-96
2023/02/02 00:31:47;;;;;;;11.90;6.18;;;;;;;3.49;61.80;99343.91;4935474;29;20032;-96
2023/02/02 00:34:16;;;;;;;27.55;7.13;;;;;;;3.48;62.71;99365.41;4933711;29;20040;-96
2023/02/02 00:36:43;;;;;;;9.35;5.20;;;;;;;3.37;62.75;99359.00;4920033;29;20071;-96
2023/02/02 00:39:16;;;;;;;12.32;5.43;;;;;;;3.36;62.77;99350.19;4952648;29;20032;-96
2023/02/02 00:41:45;;;;;;;11.93;6.32;;;;;;;3.24;63.08;99363.41;4937881;29;20031;-96
2023/02/02 00:46:56;;;;;;;14.80;7.00;;;;;;;3.45;61.62;99361.34;4949757;29;20058;-96
2023/02/02 00:49:22;;;;;;;10.25;5.90;;;;;;;3.64;62.12;99380.78;4934444;29;20027;-96
2023/02/02 00:51:53;;;;;;;10.07;5.43;;;;;;;3.79;61.92;99391.06;4934229;29;20036;-96
2023/02/02 00:54:24;;;;;;;9.43;5.22;;;;;;;3.68;61.50;99362.53;4919561;29;20065;-96
2023/02/02 00:56:55;;;;;;;10.63;4.95;;;;;;;3.77;61.04;99364.66;4952063;29;20036;-96
2023/02/02 00:59:27;;;;;;;7.53;5.37;;;;;;;3.69;61.51;99346.31;4936310;29;20031;-96
2023/02/02 01:01:57;;;;;;;7.32;5.20;;;;;;;3.72;62.52;99359.19;4952305;29;20039;-96
2023/02/02 01:04:31;;;;;;;10.82;5.03;;;;;;;3.69;62.05;99350.84;4934736;29;20126;-96
2023/02/02 01:06:59;;;;;;;13.55;5.45;;;;;;;3.88;62.99;99376.41;4950006;29;20049;-96
2023/02/02 01:09:31;;;;;;;9.95;5.30;;;;;;;3.67;61.93;99348.38;4935955;29;20046;-96
2023/02/02 01:12:00;;;;;;;8.13;5.32;;;;;;;3.68;62.36;99360.69;4937551;29;20043;-96
2023/02/02 01:14:28;;;;;;;10.00;5.60;;;;;;;3.68;62.37;99351.88;4951466;29;20122;-96
2023/02/02 01:17:00;;;;;;;11.15;5.18;;;;;;;3.60;60.82;99343.16;4933845;29;20016;-96
2023/02/02 01:19:26;;;;;;;11.77;4.28;;;;;;;3.78;61.55;99366.28;4934260;29;20028;-96
2023/02/02 01:21:53;;;;;;;6.53;4.47;;;;;;;3.77;61.81;99356.66;4934071;29;20032;-96
2023/02/02 01:24:30;;;;;;;8.40;4.80;;;;;;;3.71;61.91;99349.56;4950348;29;20042;-96
2023/02/02 01:26:56;;;;;;;9.48;4.03;;;;;;;3.81;61.33;99352.50;4951693;29;20043;-96
2023/02/02 01:29:25;;;;;;;7.72;4.53;;;;;;;3.98;61.73;99366.00;4951592;29;20024;-96
2023/02/02 01:31:56;;;;;;;9.40;4.07;;;;;;;4.09;61.87;99360.97;4932362;29;20043;-96
2023/02/02 01:34:21;;;;;;;5.78;3.00;;;;;;;4.34;60.79;99380.28;4932897;29;20038;-95
2023/02/02 01:36:47;;;;;;;5.15;3.55;;;;;;;4.24;61.75;99370.19;4916706;29;20060;-96
2023/02/02 01:39:13;;;;;;;6.82;3.40;;;;;;;4.37;61.32;99368.34;4917191;29;20032;-96
2023/02/02 01:41:42;;;;;;;8.20;3.33;;;;;;;4.34;60.09;99360.84;4933011;29;20042;-96
2023/02/02 01:44:45;;;;;;;10.25;4.40;;;;;;;4.43;60.04;99378.91;4911053;29;20079;-96
2023/02/02 01:47:11;;;;;;;17.02;6.85;;;;;;;4.25;59.73;99363.81;4941697;29;20052;-96
2023/02/02 01:49:37;;;;;;;12.07;6.82;;;;;;;4.27;60.83;99366.25;4925995;29;20028;-95
2023/02/02 01:52:03;;;;;;;15.02;6.90;;;;;;;4.16;59.74;99353.69;4909723;29;20024;-96
2023/02/02 01:54:31;;;;;;;9.23;6.13;;;;;;;4.18;60.45;99371.09;4910117;29;20498;-96
2023/02/02 01:57:08;;;;;;;9.98;4.72;;;;;;;4.12;60.41;99369.31;4926707;29;20023;-96
2023/02/02 01:59:33;;;;;;;13.23;4.47;;;;;;;3.91;60.56;99353.84;4926741;29;20027;-96
2023/02/02 02:01:59;;;;;;;6.57;3.25;;;;;;;3.80;61.17;99348.25;4925566;29;20038;-96
2023/02/02 02:04:25;;;;;;;6.55;3.55;;;;;;;3.93;61.59;99365.09;4909895;29;20085;-96
2023/02/02 02:06:52;;;;;;;5.85;3.45;;;;;;;3.81;61.16;99357.84;4910611;29;20444;-96
2023/02/02 02:09:18;;;;;;;8.27;4.15;;;;;;;3.82;60.70;99359.47;4910143;29;20091;-96
2023/02/02 02:11:43;;;;;;;6.28;3.67;;;;;;;3.79;61.63;99357.25;4926102;29;20066;-96
2023/02/02 02:16:57;;;;;;;6.40;3.88;;;;;;;3.71;63.40;99365.53;4928575;29;20111;-96
2023/02/02 02:26:32;;;;;;;7.90;4.00;;;;;;;3.69;63.38;99353.50;4942747;29;20035;-96
2023/02/02 02:26:32;;;;;;;11.73;7.93;;;;;;;3.69;62.92;99338.31;4941296;29;20087;-95
2023/02/02 02:29:16;;;;;;;5.22;3.10;;;;;;;3.86;62.83;99365.19;4941194;29;20035;-96
2023/02/02 02:31:45;;;;;;;7.38;3.15;;;;;;;3.97;62.58;99363.59;4940823;29;20114;-95
2023/02/02 02:34:37;;;;;;;6.32;3.15;;;;;;;4.02;63.26;99366.38;4940760;29;20027;-96
2023/02/02 02:37:17;;;;;;;8.18;3.03;;;;;;;4.01;63.63;99365.56;4940424;29;20395;-96
2023/02/02 02:40:00;;;;;;;3.92;2.40;;;;;;;3.91;62.67;99346.66;4927079;29;20031;-96
2023/02/02 02:42:27;;;;;;;5.28;2.85;;;;;;;3.92;62.52;99347.47;4909008;29;20023;-96
2023/02/02 02:44:53;;;;;;;6.45;2.80;;;;;;;4.01;62.25;99356.78;4909165;29;20495;-96
2023/02/02 02:47:18;;;;;;;4.38;2.60;;;;;;;4.07;61.96;99366.53;4895180;29;20139;-96
2023/02/02 02:49:45;;;;;;;6.28;3.05;;;;;;;4.09;61.97;99360.97;4909380;29;20027;-96
2023/02/02 02:52:11;;;;;;;4.20;2.40;;;;;;;3.98;61.55;99349.22;4908703;29;20031;-96
2023/02/02 02:54:43;;;;;;;3.47;2.30;;;;;;;3.96;61.38;99345.97;4893168;29;20039;-95
2023/02/02 02:57:15;;;;;;;3.97;2.25;;;;;;;4.08;61.88;99373.47;4894444;29;20488;-96
2023/02/02 03:00:07;;;;;;;4.97;2.78;;;;;;;4.04;62.24;99367.78;4924971;29;20038;-96
2023/02/02 03:02:51;;;;;;;5.75;2.25;;;;;;;4.06;61.27;99370.22;4924641;29;20130;-96
2023/02/02 03:05:38;;;;;;;4.60;2.13;;;;;;;4.08;60.56;99367.34;4924811;29;20036;-96
2023/02/02 03:08:10;;;;;;;4.10;2.28;;;;;;;4.01;61.50;99372.75;4924584;29;20430;-96
2023/02/02 03:10:36;;;;;;;3.67;2.30;;;;;;;3.92;61.43;99347.47;4924221;29;20039;-95
2023/02/02 03:13:05;;;;;;;4.38;3.03;;;;;;;3.78;62.03;99334.34;4908643;29;20067;-96
2023/02/02 03:15:31;;;;;;;4.13;2.67;;;;;;;3.77;62.29;99332.69;4909079;29;20036;-96
2023/02/02 03:17:56;;;;;;;5.28;2.88;;;;;;;3.78;62.19;99346.84;4893542;29;20038;-96
2023/02/02 03:20:22;;;;;;;5.97;3.00;;;;;;;3.69;62.29;99330.34;4892817;29;20032;-96
2023/02/02 03:22:47;;;;;;;7.03;4.25;;;;;;;3.79;62.69;99359.09;4892950;29;20118;-96
2023/02/02 03:25:14;;;;;;;11.05;5.85;;;;;;;3.62;63.20;99348.25;4892629;29;20098;-96
2023/02/02 03:27:40;;;;;;;4.85;3.03;;;;;;;3.63;63.28;99353.38;4909075;29;20547;-96
2023/02/02 03:30:06;;;;;;;4.35;2.53;;;;;;;3.75;62.96;99369.38;4907828;29;20067;-96
2023/02/02 03:32:32;;;;;;;4.25;2.83;;;;;;;3.66;63.24;99359.28;4892507;29;20027;-96
2023/02/02 03:34:58;;;;;;;5.72;3.40;;;;;;;3.56;63.95;99349.94;4893257;29;20031;-96
2023/02/02 03:37:23;;;;;;;6.50;3.40;;;;;;;3.69;63.84;99364.16;4892828;29;20035;-96
2023/02/02 03:39:49;;;;;;;4.35;2.72;;;;;;;3.53;63.72;99338.94;4908086;29;20427;-96
2023/02/02 03:42:14;;;;;;;6.60;2.97;;;;;;;3.72;63.84;99371.69;4907848;29;20467;-96
2023/02/02 03:44:40;;;;;;;6.20;2.97;;;;;;;3.53;64.32;99344.25;4892156;29;20032;-96
2023/02/02 03:47:08;;;;;;;5.25;2.80;;;;;;;3.60;64.43;99361.78;4893034;29;20048;-96
2023/02/02 03:49:37;;;;;;;4.22;3.08;;;;;;;3.60;64.42;99356.47;4887003;29;20028;-96
2023/02/02 03:52:20;;;;;;;6.10;3.15;;;;;;;3.44;65.05;99335.75;4902284;29;20035;-96
2023/02/02 03:54:49;;;;;;;3.90;2.60;;;;;;;3.70;64.35;99361.25;4904746;29;20027;-96
2023/02/02 03:57:15;;;;;;;5.32;2.60;;;;;;;3.57;64.54;99334.78;4899543;29;20060;-96
2023/02/02 03:59:40;;;;;;;8.18;2.97;;;;;;;3.58;63.91;99336.44;4877443;29;20499;-96
2023/02/02 04:02:06;;;;;;;4.03;2.72;;;;;;;3.64;64.31;99348.84;4877793;29;20039;-96
2023/02/02 04:04:32;;;;;;;5.40;2.33;;;;;;;3.58;64.00;99344.41;4879082;29;20012;-95
2023/02/02 04:06:58;;;;;;;3.92;2.55;;;;;;;3.42;64.87;99320.03;4877043;29;20028;-96
2023/02/02 04:09:24;;;;;;;3.08;2.10;;;;;;;3.58;64.19;99344.41;4892007;29;20063;-95
2023/02/02 04:11:50;;;;;;;3.72;2.45;;;;;;;3.52;64.44;99337.31;4890625;29;20039;-95
2023/02/02 04:14:15;;;;;;;4.47;2.30;;;;;;;3.46;63.99;99331.03;4875774;29;20451;-95
2023/02/02 04:16:41;;;;;;;4.65;2.40;;;;;;;3.55;64.51;99355.50;4876108;29;20028;-95
2023/02/02 04:19:07;;;;;;;8.20;3.05;;;;;;;3.55;63.62;99358.16;4894775;29;20032;-96
2023/02/02 04:21:33;;;;;;;6.90;3.72;;;;;;;3.41;63.97;99337.03;4880542;29;20597;-96
2023/02/02 04:24:09;;;;;;;7.82;3.47;;;;;;;3.58;64.12;99363.84;4897821;29;20024;-96
2023/02/02 04:26:38;;;;;;;4.43;2.88;;;;;;;3.49;64.21;99353.75;4885749;29;20096;-96
2023/02/02 04:29:06;;;;;;;16.75;7.15;;;;;;;3.34;64.50;99336.31;4900111;29;20066;-96
2023/02/02 04:31:39;;;;;;;21.48;9.10;;;;;;;3.29;65.41;99332.69;4897976;29;20419;-94
2023/02/02 04:34:07;;;;;;;25.67;10.85;;;;;;;3.32;64.96;99332.22;4894347;29;20076;-95
2023/02/02 04:36:35;;;;;;;22.75;10.75;;;;;;;3.34;65.54;99349.63;4875137;29;20487;-96
2023/02/02 04:39:01;;;;;;;16.08;8.18;;;;;;;3.31;65.08;99335.94;4895630;29;20044;-96
2023/02/02 04:41:28;;;;;;;17.52;8.65;;;;;;;3.37;64.79;99351.00;4893355;29;20104;-96
2023/02/02 04:44:01;;;;;;;14.32;7.88;;;;;;;3.24;65.15;99320.03;4897771;29;20055;-96
2023/02/02 04:46:44;;;;;;;;;;;;;;;;;;;;;
2023/02/02 04:49:13;;;;;;;10.57;6.15;;;;;;;3.35;64.58;99334.44;4896099;29;20113;-96
2023/02/02 04:51:42;;;;;;;15.98;6.05;;;;;;;3.31;64.61;99333.25;4880114;29;20032;-95
2023/02/02 04:54:08;;;;;;;10.15;4.72;;;;;;;3.37;64.31;99351.81;4903895;29;20019;-95
2023/02/02 04:56:34;;;;;;;11.23;4.43;;;;;;;3.35;64.28;99348.56;4889931;29;20123;-93
2023/02/02 04:59:00;;;;;;;11.80;4.57;;;;;;;3.42;63.68;99356.47;4907382;29;20044;-94
2023/02/02 05:01:29;;;;;;;6.00;3.15;;;;;;;3.39;63.51;99355.06;4891087;29;20063;-96
2023/02/02 05:03:58;;;;;;;6.85;3.40;;;;;;;3.44;63.68;99359.72;4910545;29;20047;-96
2023/02/02 05:06:31;;;;;;;6.43;3.45;;;;;;;3.41;63.15;99358.31;4925581;29;20107;-96
2023/02/02 05:09:04;;;;;;;4.95;3.15;;;;;;;3.28;64.01;99345.16;4904970;29;20488;-96
2023/02/02 05:11:31;;;;;;;5.95;3.13;;;;;;;3.43;63.67;99366.09;4889805;29;20032;-96
2023/02/02 05:14:00;;;;;;;15.27;3.50;;;;;;;3.34;63.69;99352.28;4889921;29;20032;-96
2023/02/02 05:16:28;;;;;;;4.82;2.97;;;;;;;3.34;64.02;99354.94;4877322;29;20039;-96
2023/02/02 05:18:55;;;;;;;8.32;3.78;;;;;;;3.52;64.39;99375.41;4908444;29;20092;-96
2023/02/02 05:21:22;;;;;;;14.20;3.33;;;;;;;3.58;63.93;99371.84;4888809;29;20038;-96
2023/02/02 05:23:49;;;;;;;4.70;3.33;;;;;;;3.50;63.74;99361.50;4890397;29;20039;-96
2023/02/02 05:26:22;;;;;;;7.15;3.42;;;;;;;3.49;63.49;99356.41;4889504;29;20036;-96
2023/02/02 05:28:48;;;;;;;13.93;3.97;;;;;;;3.54;62.85;99367.19;4889238;29;20028;-96
2023/02/02 05:31:14;;;;;;;9.55;3.90;;;;;;;3.53;63.39;99365.56;4889180;29;20479;-96
2023/02/02 05:33:43;;;;;;;9.77;4.90;;;;;;;3.67;63.11;99372.34;4888600;29;20115;-96
2023/02/02 05:36:09;;;;;;;14.60;4.60;;;;;;;3.61;63.51;99370.56;4891358;29;20072;-96
2023/02/02 05:38:36;;;;;;;10.23;4.90;;;;;;;3.72;63.45;99385.81;4891424;29;20036;-96
2023/02/02 05:41:03;;;;;;;14.45;4.88;;;;;;;3.76;63.70;99400.31;4906040;29;20029;-96
2023/02/02 05:43:30;;;;;;;8.98;5.10;;;;;;;3.76;63.34;99408.31;4890463;29;20044;-96
2023/02/02 05:46:05;;;;;;;10.43;5.05;;;;;;;3.62;63.55;99380.22;4910610;29;20503;-96
2023/02/02 05:48:50;;;;;;;19.02;6.15;;;;;;;3.79;63.38;99386.53;4916830;29;20119;-96
2023/02/02 05:51:21;;;;;;;19.63;6.88;;;;;;;3.87;63.33;99406.75;4897224;29;20051;-96
2023/02/02 05:53:48;;;;;;;;;;;;;;;3.96;63.92;99418.69;4902092;29;20101;-96
2023/02/02 05:56:16;;;;;;;16.42;6.63;;;;;;;3.75;63.74;99380.03;4914506;29;19919;-96
2023/02/02 05:58:43;;;;;;;20.92;7.85;;;;;;;3.88;63.94;99386.25;4893816;29;20051;-96
2023/02/02 06:01:08;;;;;;;20.75;7.40;;;;;;;4.08;62.91;99397.44;4892124;29;20047;-94
2023/02/02 06:03:35;;;;;;;14.85;6.75;;;;;;;4.20;62.37;99400.97;4893481;29;20028;-94
2023/02/02 06:06:01;;;;;;;11.40;5.95;;;;;;;4.28;61.10;99385.72;4895043;29;20047;-92
2023/02/02 06:08:27;;;;;;;22.10;6.50;;;;;;;4.47;60.66;99386.47;4894296;29;20157;-91
2023/02/02 06:10:52;;;;;;;13.95;6.07;;;;;;;4.65;60.51;99400.53;4919053;29;20012;-93
2023/02/02 06:13:18;;;;;;;17.02;6.93;;;;;;;4.78;59.74;99393.38;4904717;29;20036;-94
2023/02/02 06:15:46;;;;;;;11.93;5.88;;;;;;;4.91;59.76;99397.69;4913600;29;20039;-96
2023/02/02 06:18:12;;;;;;;8.73;5.93;;;;;;;4.94;58.94;99397.19;4912232;29;20052;-96
2023/02/02 06:20:37;;;;;;;31.92;17.58;;;;;;;4.95;58.10;99380.16;4891065;29;20040;-93
2023/02/02 06:23:03;;;;;;;13.40;5.63;;;;;;;5.07;57.80;99378.31;4897990;29;20051;-94
2023/02/02 06:25:30;;;;;;;8.80;5.00;;;;;;;5.23;57.64;99380.28;4887742;29;20036;-93
2023/02/02 06:28:08;;;;;;;13.45;8.02;;;;;;;5.37;56.59;99375.50;4898840;29;20039;-93
2023/02/02 06:30:33;;;;;;;15.27;5.88;;;;;;;5.60;56.79;99396.03;4919743;29;20058;-93
2023/02/02 06:33:19;;;;;;;11.38;5.03;;;;;;;5.45;56.60;99369.78;4910807;29;20038;-95
2023/02/02 06:35:46;;;;;;;14.82;5.00;;;;;;;5.45;56.23;99366.31;4917161;29;20038;-93
2023/02/02 06:38:12;;;;;;;12.35;7.07;;;;;;;5.48;56.73;99357.84;4900328;29;20031;-94
2023/02/02 06:40:37;;;;;;;12.73;5.50;;;;;;;5.54;55.78;99366.75;4892872;29;20507;-92
2023/02/02 06:43:03;;;;;;;11.13;5.57;;;;;;;5.77;55.62;99373.91;4896053;29;20100;-94
2023/02/02 06:45:31;;;;;;;15.02;6.35;;;;;;;5.82;55.81;99379.38;4909468;29;20058;-95
2023/02/02 06:48:12;;;;;;;19.42;7.55;;;;;;;5.98;55.74;99373.31;4914886;29;20112;-96
2023/02/02 06:50:41;;;;;;;14.70;6.30;;;;;;;6.01;54.65;99364.00;4933569;29;20059;-96
2023/02/02 06:53:08;;;;;;;20.58;7.18;;;;;;;6.25;55.00;99367.38;4919638;29;20046;-96
2023/02/02 06:55:36;;;;;;;10.65;5.90;;;;;;;6.50;53.03;99375.03;4915073;29;20410;-95
2023/02/02 07:00:44;;;;;;;5.28;2.55;;;;;;;6.80;49.31;99377.38;4934517;29;20048;-96
2023/02/02 07:03:11;;;;;;;3.65;2.00;;;;;;;6.83;47.77;99371.56;4926665;29;20613;-95
2023/02/02 07:05:38;;;;;;;4.85;2.25;;;;;;;6.93;47.41;99381.63;4910158;29;20031;-96
2023/02/02 07:08:07;;;;;;;6.93;2.67;;;;;;;6.98;47.83;99391.59;4910412;29;20515;-96
2023/02/02 07:11:16;;;;;;;2.92;1.80;;;;;;;7.32;46.91;99399.59;4931417;29;20046;-95
2023/02/02 07:13:46;;;;;;;6.88;2.20;;;;;;;7.23;47.24;99383.94;4929937;29;20032;-94
2023/02/02 07:16:14;;;;;;;4.07;1.70;;;;;;;7.44;45.79;99397.63;4904929;29;20041;-94
2023/02/02 07:18:41;;;;;;;3.80;1.92;;;;;;;7.47;45.44;99381.88;4889055;29;20054;-94
2023/02/02 07:21:08;;;;;;;4.10;1.88;;;;;;;7.67;45.10;99418.81;4872957;29;20068;-96
2023/02/02 07:23:43;;;;;;;3.33;1.70;;;;;;;7.60;45.08;99396.75;4894928;29;20109;-94
2023/02/02 07:26:15;;;;;;;4.38;1.73;;;;;;;7.90;45.16;99414.28;4879119;29;20039;-95
2023/02/02 07:28:46;;;;;;;4.03;2.08;;;;;;;7.87;44.31;99396.03;4906144;29;20040;-96
2023/02/02 07:31:26;;;;;;;4.57;1.73;;;;;;;8.02;44.64;99425.69;4860601;29;20436;-95
2023/02/02 07:34:12;;;;;;;1.90;1.30;;;;;;;7.95;44.00;99390.22;4889621;29;20069;-96
2023/02/02 07:36:42;;;;;;;2.95;1.48;;;;;;;8.03;43.82;99397.81;4910673;29;20087;-96
2023/02/02 07:39:10;;;;;;;1.85;1.33;;;;;;;8.07;44.96;99411.53;4904340;29;20044;-96
2023/02/02 07:41:40;;;;;;;3.42;2.05;;;;;;;8.18;44.12;99407.09;4903620;29;20519;-95
2023/02/02 07:44:15;;;;;;;4.05;1.90;;;;;;;8.30;43.99;99403.22;4911805;29;20072;-95
2023/02/02 07:46:49;;;;;;;4.85;1.98;;;;;;;8.34;44.04;99413.44;4900533;29;20111;-94
2023/02/02 07:49:19;;;;;;;6.78;1.77;;;;;;;8.49;43.64;99408.25;4896646;29;20091;-95
2023/02/02 07:54:50;;;;;;;4.30;1.63;;;;;;;8.80;42.71;99403.16;5741875;23;20050;-95
2023/02/02 07:57:25;;;;;;;6.47;1.55;;;;;;;9.05;42.60;99427.53;4947159;28;20130;-96
2023/02/02 08:02:49;;;;;;;2.97;1.58;;;;;;;8.86;41.47;99407.50;5075437;23;20492;-95
2023/02/02 08:21:12;;;;;;;3.17;1.58;;;;;;;8.86;41.22;99412.84;4978194;28;20062;-95
2023/02/02 08:23:47;;;;;;;3.75;1.50;;;;;;;8.70;41.63;99426.16;4934785;28;20038;-96
2023/02/02 08:26:46;;;;;;;5.03;2.03;;;;;;;8.63;42.58;99396.06;4940330;28;20034;-96
2023/02/02 08:29:51;;;;;;;;;;;;;;;;;;;;;
2023/02/02 08:32:32;;;;;;;3.15;1.95;;;;;;;8.62;41.79;99398.97;4959331;29;20118;-96
2023/02/02 08:35:24;;;;;;;3.92;1.60;;;;;;;8.60;42.04;99401.09;4937562;28;20042;-96
2023/02/02 08:38:06;;;;;;;6.45;2.25;;;;;;;8.64;42.00;99397.66;4954583;28;20030;-96
2023/02/02 08:46:24;;;;;;;4.13;2.15;;;;;;;8.78;41.82;99398.06;4898756;29;20067;-93
2023/02/02 08:48:50;;;;;;;5.43;3.15;;;;;;;8.79;42.10;99386.22;4875727;29;20046;-96
2023/02/02 08:51:18;;;;;;;4.40;1.63;;;;;;;8.96;41.56;99396.03;4874711;29;20115;-96
2023/02/02 08:54:35;;;;;;;4.85;2.40;;;;;;;8.90;41.71;99371.00;4872793;29;20688;-96
2023/02/02 08:57:10;;;;;;;3.50;1.42;;;;;;;9.01;39.88;99379.97;4889107;29;20036;-95
2023/02/02 08:59:36;;;;;;;3.20;1.55;;;;;;;8.81;40.55;99368.00;4862578;29;20036;-93
2023/02/02 09:02:01;;;;;;;2.47;1.75;;;;;;;9.03;40.05;99370.56;4868364;29;20033;-93
2023/02/02 09:04:27;;;;;;;2.90;1.48;;;;;;;9.10;39.43;99371.16;4853534;29;20080;-93
2023/02/02 09:06:53;;;;;;;2.25;1.30;;;;;;;9.14;38.93;99379.50;4860161;29;20025;-94
2023/02/02 09:09:18;;;;;;;2.35;1.10;;;;;;;9.27;38.99;99378.25;4885733;29;20028;-92
2023/02/02 09:11:44;;;;;;;4.00;1.98;;;;;;;9.19;39.05;99352.66;4887210;29;20384;-93
2023/02/02 09:14:26;;;;;;;4.78;1.23;;;;;;;9.34;38.34;99349.28;4886247;29;20036;-92
2023/02/02 09:16:52;;;;;;;3.50;1.80;;;;;;;9.48;39.21;99349.59;4894107;29;20060;-95
2023/02/02 09:19:18;;;;;;;4.55;2.22;;;;;;;9.66;38.34;99357.22;4960537;23;20528;-96
2023/02/02 09:21:50;;;;;;;5.05;1.63;;;;;;;9.75;38.11;99346.75;4938471;28;20524;-96
2023/02/02 09:24:20;;;;;;;12.27;1.60;;;;;;;9.68;38.59;99338.94;4950082;28;20034;-96
2023/02/02 09:26:47;;;;;;;3.60;1.77;;;;;;;9.88;37.36;99365.09;4935750;28;20496;-96
2023/02/02 09:29:22;;;;;;;1.83;1.23;;;;;;;9.89;37.88;99349.75;4933112;28;20101;-96
2023/02/02 09:31:57;;;;;;;4.43;1.40;;;;;;;9.98;37.97;99337.44;4922570;29;20051;-96
2023/02/02 09:34:27;;;;;;;1.95;1.10;;;;;;;10.16;36.27;99357.63;4924700;28;20089;-95
2023/02/02 09:37:04;;;;;;;3.13;1.10;;;;;;;10.12;35.64;99341.22;4933506;29;20112;-96
2023/02/02 09:42:44;;;;;;;3.35;1.70;;;;;;;10.22;36.55;99321.59;4907063;29;20076;-96
2023/02/02 09:56:49;;;;;;;;;;;;;;;;;;;;;
2023/02/02 10:03:55;;;;;;;3.38;1.70;;;;;;;10.50;34.14;99312.22;4804080;29;20066;-96
2023/02/02 10:06:45;;;;;;;4.10;2.03;;;;;;;10.75;34.37;99342.09;4768589;30;20445;-96
2023/02/02 10:09:35;;;;;;;4.32;2.22;;;;;;;10.89;34.30;99325.13;4782731;29;20048;-94
2023/02/02 10:12:20;;;;;;;5.43;1.90;;;;;;;10.84;33.94;99305.47;4888936;29;20495;-95
2023/02/02 10:15:16;;;;;;;5.90;3.03;;;;;;;11.14;33.74;99323.44;4903039;29;20036;-96
2023/02/02 10:21:40;;;;;;;3.13;1.88;;;;;;;11.30;32.37;99308.84;4872842;29;20097;-96
2023/02/02 10:24:15;;;;;;;5.85;2.25;;;;;;;11.17;32.15;99285.19;4846326;29;20124;-95
2023/02/02 10:30:02;;;;;;;5.00;1.92;;;;;;;11.22;31.35;99276.28;4917794;29;20025;-96
2023/02/02 10:32:51;;;;;;;3.90;1.98;;;;;;;11.42;31.40;99294.28;4889446;29;20025;-96
2023/02/02 10:35:39;;;;;;;3.67;1.98;;;;;;;11.52;31.77;99286.13;4906685;29;20033;-96
2023/02/02 10:41:26;;;;;;;2.53;1.63;;;;;;;11.59;31.67;99283.94;4907603;29;20116;-96
2023/02/02 10:44:14;;;;;;;3.75;1.90;;;;;;;11.71;32.15;99276.31;4895051;29;20029;-95
2023/02/02 10:53:42;;;;;;;6.90;2.22;;;;;;;12.02;31.32;99251.09;4847367;29;20067;-96
2023/02/02 10:56:11;;;;;;;5.97;2.10;;;;;;;11.97;31.19;99241.13;4824728;29;20042;-96
2023/02/02 10:59:04;;;;;;;5.20;1.90;;;;;;;11.86;29.83;99224.16;4857888;29;20064;-92
2023/02/02 11:01:33;;;;;;;5.70;2.50;;;;;;;12.01;29.88;99242.16;4908596;29;20036;-96
2023/02/02 11:07:04;;;;;;;7.25;1.75;;;;;;;12.06;30.16;99225.16;4893522;29;20575;-94
2023/02/02 11:09:31;;;;;;;6.85;2.22;;;;;;;12.17;29.07;99221.28;4873586;29;20037;-95
2023/02/02 11:12:02;;;;;;;4.07;1.77;;;;;;;12.16;29.72;99214.28;4873526;29;20036;-93
2023/02/02 11:15:06;;;;;;;3.70;2.00;;;;;;;12.02;29.65;99202.50;4871463;29;20038;-95
2023/02/02 11:20:53;;;;;;;5.22;1.92;;;;;;;12.08;29.72;99196.78;4885455;29;20036;-94
2023/02/02 11:24:16;;;;;;;;;;;;;;;;;;;;;
2023/02/02 11:27:26;;;;;;;3.92;1.52;;;;;;;12.10;28.72;99181.13;4845434;29;20126;-94
2023/02/02 11:30:34;;;;;;;4.07;2.63;;;;;;;11.95;30.02;99178.53;4851272;29;20041;-96
2023/02/02 11:33:22;;;;;;;2.72;1.65;;;;;;;11.89;29.66;99172.38;4781165;30;20044;-96
2023/02/02 11:35:52;;;;;;;3.90;2.47;;;;;;;11.87;29.56;99173.72;4798408;29;20038;-94
2023/02/02 11:38:38;;;;;;;2.42;1.48;;;;;;;11.77;29.41;99171.91;4833402;29;20090;-95
2023/02/02 11:41:05;;;;;;;2.80;1.80;;;;;;;11.89;30.17;99190.44;4820141;29;20049;-95
2023/02/02 11:43:51;;;;;;;4.82;2.38;;;;;;;11.70;31.16;99161.44;4813075;29;20484;-96
2023/02/02 11:46:27;;;;;;;2.83;2.00;;;;;;;11.69;30.91;99154.44;4824040;29;20038;-96
2023/02/02 11:49:16;;;;;;;7.55;2.45;;;;;;;11.76;31.24;99167.59;4834221;29;20029;-96
2023/02/02 11:51:45;;;;;;;4.57;1.98;;;;;;;11.79;30.63;99150.06;4844031;29;20105;-95
2023/02/02 11:54:25;;;;;;;3.60;2.08;;;;;;;11.80;30.70;99144.34;4839720;29;20025;-96
2023/02/02 11:56:52;;;;;;;7.70;5.10;;;;;;;11.78;31.04;99141.13;4830210;29;20149;-95
2023/02/02 11:59:37;;;;;;;3.60;2.17;;;;;;;11.88;30.20;99142.97;4845175;29;20030;-95
2023/02/02 12:02:18;;;;;;;3.40;1.75;;;;;;;11.82;30.91;99154.88;4847865;29;20046;-94
2023/02/02 12:04:47;;;;;;;2.80;1.63;;;;;;;11.74;30.77;99129.31;4857527;29;20037;-95
2023/02/02 12:07:31;;;;;;;2.88;1.77;;;;;;;11.86;30.92;99151.31;4850412;29;20037;-94
2023/02/02 12:10:00;;;;;;;3.55;2.10;;;;;;;11.64;30.63;99142.88;4847203;29;20502;-96
2023/02/02 12:12:51;;;;;;;4.05;2.55;;;;;;;11.49;31.52;99133.78;4862368;29;20041;-95
2023/02/02 12:15:34;;;;;;;4.38;1.75;;;;;;;11.58;31.49;99146.69;4887436;29;20048;-96
2023/02/02 12:18:39;;;;;;;5.68;2.45;;;;;;;11.42;31.33;99135.22;4870652;29;20132;-96
2023/02/02 12:21:15;;;;;;;3.53;1.80;;;;;;;11.35;31.29;99127.44;4858793;29;20025;-96
2023/02/02 12:24:10;;;;;;;;;;;;;;;;;;;;;
2023/02/02 12:26:41;;;;;;;5.43;2.55;;;;;;;11.24;31.36;99132.06;4883613;29;20073;-95
2023/02/02 12:29:53;;;;;;;12.63;3.40;;;;;;;11.13;32.03;99160.16;4854879;29;20065;-96
2023/02/02 12:32:51;;;;;;;8.02;3.60;;;;;;;10.98;32.70;99171.00;4895874;29;20092;-96
2023/02/02 12:35:29;;;;;;;8.05;3.70;;;;;;;10.98;33.41;99198.78;4869549;29;20037;-96
2023/02/02 12:38:05;;;;;;;7.30;2.80;;;;;;;10.37;37.11;99232.00;4890909;29;20021;-96
2023/02/02 12:41:08;;;;;;;7.07;2.35;;;;;;;9.38;48.44;99291.25;4875271;29;20100;-96
2023/02/02 12:43:50;;;;;;;5.90;2.72;;;;;;;8.25;56.62;99284.31;4868933;29;20046;-95
2023/02/02 12:47:12;;;;;;;4.22;2.22;;;;;;;7.56;61.21;99304.53;4856543;29;20540;-95
2023/02/02 12:49:45;;;;;;;5.95;3.53;;;;;;;7.08;64.84;99288.16;4844776;29;20116;-96
2023/02/02 12:52:54;;;;;;;11.13;6.85;;;;;;;6.92;65.42;99309.59;4854662;29;20049;-96
2023/02/02 12:55:53;;;;;;;4.03;2.33;;;;;;;6.43;65.58;99286.09;4872744;29;20041;-96
2023/02/02 12:59:10;;;;;;;4.40;2.35;;;;;;;6.24;65.65;99275.66;4844679;29;20085;-96
2023/02/02 13:02:16;;;;;;;3.80;2.15;;;;;;;6.44;66.42;99327.88;4831194;29;20030;-96
2023/02/02 13:05:41;;;;;;;;;;;;;;;;;;;;;
2023/02/02 13:08:48;;;;;;;5.20;2.28;;;;;;;6.36;67.28;99323.72;4854573;29;20082;-96
2023/02/02 13:11:31;;;;;;;4.50;2.38;;;;;;;5.99;69.07;99283.25;4827048;29;20110;-96
2023/02/02 13:14:51;;;;;;;6.57;2.75;;;;;;;6.25;67.95;99287.19;4843285;29;20044;-96
2023/02/02 13:17:29;;;;;;;6.70;3.15;;;;;;;6.44;67.04;99311.81;4847978;29;20033;-95
2023/02/02 13:20:18;;;;;;;5.90;2.80;;;;;;;6.53;66.52;99317.56;4846088;29;20462;-95
2023/02/02 13:22:43;;;;;;;3.35;1.92;;;;;;;6.62;68.43;99332.16;4835131;29;20414;-92
2023/02/02 13:25:18;;;;;;;5.65;2.53;;;;;;;6.52;67.89;99314.09;4833335;29;20048;-92
2023/02/02 13:27:44;;;;;;;3.17;2.15;;;;;;;6.41;66.84;99315.78;4852522;29;20029;-94
2023/02/02 13:30:16;;;;;;;4.45;2.28;;;;;;;6.31;67.47;99329.00;4843611;29;20034;-93
2023/02/02 13:32:44;;;;;;;4.10;2.17;;;;;;;6.17;68.74;99338.38;4857860;29;20069;-92
2023/02/02 13:35:19;;;;;;;5.75;2.83;;;;;;;5.85;68.63;99342.31;4837110;29;20063;-94
2023/02/02 13:37:53;;;;;;;5.00;3.05;;;;;;;5.99;70.38;99390.16;4841162;29;20068;-95
2023/02/02 13:40:38;;;;;;;8.45;4.45;;;;;;;5.77;69.44;99366.72;4857913;29;20219;-95
2023/02/02 13:43:10;;;;;;;5.68;3.42;;;;;;;6.00;68.91;99408.63;4847400;29;20044;-96